createdAt,value
2018-07-12T00:01:51.473Z,18.74
2018-07-12T00:04:18.881Z,18.86
2018-07-12T00:06:46.277Z,18.70
2018-07-12T00:09:13.678Z,18.65
2018-07-12T00:11:41.066Z,18.54
2018-07-12T00:14:08.501Z,18.39
2018-07-12T00:16:35.905Z,18.32
2018-07-12T00:19:03.306Z,18.39
2018-07-12T00:21:30.719Z,18.55
2018-07-12T00:23:58.180Z,18.62
2018-07-12T00:26:25.617Z,18.64
2018-07-12T00:28:53.010Z,18.74
2018-07-12T00:31:20.402Z,18.84
2018-07-12T00:33:47.911Z,18.64
2018-07-12T00:36:15.314Z,18.64
2018-07-12T00:38:42.762Z,18.71
2018-07-12T00:41:10.173Z,18.50
2018-07-12T00:43:37.570Z,18.51
2018-07-12T00:46:04.986Z,18.44
2018-07-12T00:48:32.392Z,18.37
2018-07-12T00:50:59.843Z,18.37
2018-07-12T00:53:27.244Z,18.50
2018-07-12T00:55:54.645Z,18.47
2018-07-12T00:58:22.050Z,18.49
2018-07-12T01:00:49.522Z,18.49
2018-07-12T01:03:16.964Z,18.26
2018-07-12T01:05:44.372Z,18.14
2018-07-12T01:08:11.792Z,18.07
2018-07-12T01:10:39.198Z,18.05
2018-07-12T01:13:06.617Z,18.04
2018-07-12T01:15:34.064Z,18.15
2018-07-12T01:18:01.458Z,18.33
2018-07-12T01:20:28.858Z,18.41
2018-07-12T01:22:56.253Z,18.46
2018-07-12T01:25:23.652Z,18.51
2018-07-12T01:27:51.083Z,18.51
2018-07-12T01:30:18.489Z,18.43
2018-07-12T01:32:45.885Z,18.35
2018-07-12T01:35:13.363Z,18.41
2018-07-12T01:37:40.828Z,18.34
2018-07-12T01:40:08.239Z,18.24
2018-07-12T01:42:35.674Z,18.12
2018-07-12T01:45:03.073Z,18.04
2018-07-12T01:47:30.497Z,18.01
2018-07-12T01:49:57.913Z,17.93
2018-07-12T01:52:25.331Z,18.03
2018-07-12T01:54:52.771Z,18.07
2018-07-12T01:57:20.222Z,17.86
2018-07-12T01:59:47.691Z,17.78
2018-07-12T02:02:15.131Z,17.85
2018-07-12T02:04:42.552Z,18.06
2018-07-12T02:07:09.967Z,17.91
2018-07-12T02:09:37.382Z,17.98
2018-07-12T02:12:04.835Z,18.05
2018-07-12T02:14:32.250Z,18.14
2018-07-12T02:16:59.717Z,17.90
2018-07-12T02:19:27.142Z,17.74
2018-07-12T02:21:54.544Z,17.70
2018-07-12T02:24:21.969Z,17.61
2018-07-12T02:26:49.376Z,17.73
2018-07-12T02:29:16.782Z,17.83
2018-07-12T02:31:44.231Z,17.85
2018-07-12T02:34:11.649Z,17.84
2018-07-12T02:36:39.041Z,17.90
2018-07-12T02:39:06.444Z,17.91
2018-07-12T02:41:33.833Z,18.03
2018-07-12T02:44:01.262Z,18.03
2018-07-12T02:46:28.657Z,18.13
2018-07-12T02:48:56.117Z,18.14
2018-07-12T02:51:23.518Z,18.22
2018-07-12T02:53:50.910Z,18.19
2018-07-12T02:56:18.397Z,18.21
2018-07-12T02:58:45.796Z,17.95
2018-07-12T03:01:13.247Z,18.10
2018-07-12T03:03:40.650Z,18.18
2018-07-12T03:06:08.049Z,18.26
2018-07-12T03:08:35.491Z,18.29
2018-07-12T03:11:02.900Z,18.27
2018-07-12T03:13:30.493Z,18.34
2018-07-12T03:15:57.898Z,18.27
2018-07-12T03:18:25.285Z,18.20
2018-07-12T03:20:52.726Z,18.00
2018-07-12T03:23:20.126Z,17.94
2018-07-12T03:25:47.526Z,17.94
2018-07-12T03:28:14.956Z,17.98
2018-07-12T03:30:42.364Z,18.02
2018-07-12T03:33:09.817Z,18.17
2018-07-12T03:35:37.211Z,18.26
2018-07-12T03:38:04.630Z,18.20
2018-07-12T03:40:32.109Z,18.38
2018-07-12T03:42:59.486Z,19.64
2018-07-12T03:47:54.001Z,22.72
2018-07-12T03:50:21.398Z,23.89
2018-07-12T03:52:48.788Z,24.95
2018-07-12T03:55:16.209Z,25.83
2018-07-12T03:57:43.659Z,26.72
2018-07-12T04:00:11.053Z,27.94
2018-07-12T04:02:38.470Z,29.20
2018-07-12T04:05:05.905Z,29.82
2018-07-12T04:07:33.309Z,30.45
2018-07-12T04:10:00.758Z,30.31
2018-07-12T04:12:28.162Z,30.44
2018-07-12T04:14:55.553Z,30.42
2018-07-12T04:17:27.993Z,30.44
2018-07-12T04:19:55.703Z,30.69
2018-07-12T04:22:23.137Z,30.47
2018-07-12T04:24:50.694Z,31.15
2018-07-12T04:27:18.866Z,31.61
2018-07-12T04:29:46.307Z,31.84
2018-07-12T04:32:14.077Z,32.26
2018-07-12T04:34:41.565Z,32.78
2018-07-12T04:37:08.941Z,32.39
2018-07-12T04:39:36.342Z,32.18
2018-07-12T04:42:03.904Z,32.39
2018-07-12T04:44:31.576Z,32.53
2018-07-12T04:46:59.007Z,33.19
2018-07-12T04:49:26.873Z,33.19
2018-07-12T04:51:55.541Z,33.47
2018-07-12T04:54:23.123Z,33.74
2018-07-12T04:56:50.706Z,33.70
2018-07-12T04:59:19.055Z,33.75
2018-07-12T05:01:46.879Z,34.21
2018-07-12T05:04:14.294Z,34.86
2018-07-12T05:06:41.692Z,35.44
2018-07-12T05:09:10.225Z,35.78
2018-07-12T05:11:37.678Z,35.66
2018-07-12T05:14:05.074Z,35.52
2018-07-12T05:16:32.489Z,35.96
2018-07-12T05:18:59.917Z,35.72
2018-07-12T05:21:28.358Z,36.11
2018-07-12T05:23:55.848Z,36.16
2018-07-12T05:26:23.278Z,36.24
2018-07-12T05:28:50.969Z,35.98
2018-07-12T05:31:18.391Z,36.70
2018-07-12T05:33:45.832Z,36.46
2018-07-12T05:36:26.525Z,36.94
2018-07-12T05:38:55.310Z,36.61
2018-07-12T05:41:23.997Z,35.93
2018-07-12T05:43:53.012Z,36.61
2018-07-12T05:46:21.757Z,36.97
2018-07-12T05:48:50.478Z,37.69
2018-07-12T05:51:19.233Z,37.74
2018-07-12T05:53:47.942Z,37.81
2018-07-12T05:56:16.645Z,38.08
2018-07-12T05:58:45.681Z,38.00
2018-07-12T06:02:26.545Z,37.24
2018-07-12T06:04:55.333Z,38.26
2018-07-12T06:07:30.377Z,38.17
2018-07-12T06:09:59.272Z,38.34
2018-07-12T06:12:27.985Z,38.46
2018-07-12T06:14:56.682Z,39.32
2018-07-12T06:17:25.608Z,40.09
2018-07-12T06:19:54.401Z,38.46
2018-07-12T06:22:23.212Z,38.98
2018-07-12T06:24:52.110Z,39.88
2018-07-12T06:27:20.820Z,40.76
2018-07-12T06:29:49.574Z,41.76
2018-07-12T06:32:18.312Z,42.78
2018-07-12T06:34:47.109Z,42.75
2018-07-12T06:37:15.927Z,42.06
2018-07-12T06:39:44.601Z,41.39
2018-07-12T06:42:13.456Z,41.38
2018-07-12T06:44:42.171Z,40.69
2018-07-12T06:47:10.886Z,41.40
2018-07-12T06:49:39.598Z,41.13
2018-07-12T06:52:08.348Z,40.25
2018-07-12T06:54:37.101Z,41.29
2018-07-12T06:57:05.826Z,41.20
2018-07-12T06:59:34.561Z,41.96
2018-07-12T07:02:03.275Z,42.53
2018-07-12T07:04:31.996Z,41.95
2018-07-12T07:07:00.821Z,41.59
2018-07-12T07:09:29.540Z,42.55
2018-07-12T07:11:58.288Z,42.69
2018-07-12T07:14:27.077Z,41.98
2018-07-12T07:16:55.827Z,41.57
2018-07-12T07:19:24.707Z,41.76
2018-07-12T07:21:53.434Z,41.65
2018-07-12T07:24:22.152Z,41.80
2018-07-12T07:26:52.007Z,41.52
2018-07-12T07:29:20.858Z,41.55
2018-07-12T07:31:49.577Z,42.30
2018-07-12T07:34:18.314Z,42.14
2018-07-12T07:36:47.034Z,42.44
2018-07-12T07:39:15.902Z,42.47
2018-07-12T07:41:44.614Z,42.24
2018-07-12T07:44:13.321Z,42.11
2018-07-12T07:46:42.063Z,42.44
2018-07-12T07:49:10.795Z,42.18
2018-07-12T07:51:39.603Z,41.16
2018-07-12T07:54:08.310Z,41.53
2018-07-12T07:56:37.154Z,40.43
2018-07-12T07:59:05.845Z,41.23
2018-07-12T08:01:34.612Z,41.56
2018-07-12T08:04:03.367Z,41.41
2018-07-12T08:06:32.107Z,41.15
2018-07-12T08:09:00.966Z,41.56
2018-07-12T08:11:29.706Z,40.98
2018-07-12T08:13:58.506Z,41.59
2018-07-12T08:16:27.221Z,41.26
2018-07-12T08:18:55.905Z,40.23
2018-07-12T08:21:24.770Z,39.64
2018-07-12T08:23:53.466Z,38.63
2018-07-12T08:26:22.241Z,36.79
2018-07-12T08:28:51.101Z,35.55
2018-07-12T08:31:20.044Z,33.85
2018-07-12T08:33:48.670Z,35.46
2018-07-12T08:36:17.422Z,37.18
2018-07-12T08:38:46.110Z,38.67
2018-07-12T08:41:14.809Z,39.04
2018-07-12T08:43:43.544Z,39.51
2018-07-12T08:46:12.288Z,40.00
2018-07-12T08:48:40.999Z,39.35
2018-07-12T08:51:09.701Z,37.57
2018-07-12T08:53:38.410Z,36.46
2018-07-12T08:56:07.097Z,35.43
2018-07-12T08:58:35.794Z,35.33
2018-07-12T09:01:04.530Z,36.58
2018-07-12T09:03:33.268Z,35.51
2018-07-12T09:06:02.013Z,35.21
2018-07-12T09:08:30.774Z,34.54
2018-07-12T09:10:59.494Z,34.49
2018-07-12T09:13:28.189Z,36.18
2018-07-12T09:15:56.890Z,37.95
2018-07-12T09:18:25.591Z,38.89
2018-07-12T09:20:54.333Z,39.32
2018-07-12T09:23:23.040Z,38.80
2018-07-12T09:25:51.746Z,38.93
2018-07-12T09:28:20.483Z,39.44
2018-07-12T09:30:49.223Z,41.05
2018-07-12T09:33:17.943Z,41.38
2018-07-12T09:35:46.855Z,41.38
2018-07-12T09:38:28.470Z,41.69
2018-07-12T09:40:57.286Z,39.35
2018-07-12T09:43:26.100Z,38.63
2018-07-12T09:45:55.661Z,37.75
2018-07-12T09:48:24.390Z,36.03
2018-07-12T09:50:53.141Z,37.07
2018-07-12T09:53:21.881Z,37.98
2018-07-12T09:55:50.685Z,39.44
2018-07-12T09:58:27.754Z,40.35
2018-07-12T10:01:01.704Z,40.89
2018-07-12T10:03:35.611Z,40.85
2018-07-12T10:08:13.107Z,41.57
2018-07-12T10:10:46.874Z,41.08
2018-07-12T10:13:20.599Z,41.33
2018-07-12T10:15:53.450Z,40.18
2018-07-12T10:18:24.278Z,38.95
2018-07-12T10:20:53.129Z,36.59
2018-07-12T10:23:21.842Z,37.40
2018-07-12T10:25:50.603Z,37.27
2018-07-12T10:28:19.367Z,39.34
2018-07-12T10:30:48.520Z,38.54
2018-07-12T10:33:18.012Z,38.65
2018-07-12T10:35:47.007Z,39.91
2018-07-12T10:38:15.757Z,40.19
2018-07-12T10:40:44.464Z,40.72
2018-07-12T10:43:13.340Z,41.99
2018-07-12T10:45:42.624Z,41.96
2018-07-12T10:48:11.433Z,42.08
2018-07-12T10:50:40.698Z,41.72
2018-07-12T10:53:09.822Z,41.65
2018-07-12T10:55:43.249Z,40.68
2018-07-12T10:58:13.910Z,41.80
2018-07-12T11:00:48.517Z,43.48
2018-07-12T11:03:21.259Z,42.43
2018-07-12T11:05:52.199Z,41.02
2018-07-12T11:08:20.962Z,41.31
2018-07-12T11:10:49.706Z,40.79
2018-07-12T11:13:20.446Z,41.15
2018-07-12T11:15:49.214Z,42.43
2018-07-12T11:18:18.058Z,42.21
2018-07-12T11:20:46.802Z,42.96
2018-07-12T11:23:15.506Z,43.13
2018-07-12T11:25:44.350Z,42.59
2018-07-12T11:28:13.395Z,41.76
2018-07-12T11:30:42.139Z,41.19
2018-07-12T11:33:34.298Z,41.83
2018-07-12T11:36:03.435Z,39.88
2018-07-12T11:38:32.351Z,40.13
2018-07-12T11:41:01.238Z,39.76
2018-07-12T11:43:30.295Z,41.21
2018-07-12T11:45:59.366Z,40.78
2018-07-12T11:48:28.123Z,39.05
2018-07-12T11:50:56.991Z,39.81
2018-07-12T11:53:26.355Z,39.85
2018-07-12T11:55:55.190Z,39.53
2018-07-12T11:58:24.381Z,38.12
2018-07-12T12:00:53.669Z,37.60
2018-07-12T12:03:22.392Z,38.29
2018-07-12T12:05:51.126Z,39.00
2018-07-12T12:08:19.867Z,38.73
2018-07-12T12:10:48.603Z,37.56
2018-07-12T12:13:17.531Z,38.74
2018-07-12T12:15:46.263Z,38.96
2018-07-12T12:18:15.616Z,39.76
2018-07-12T12:20:44.319Z,39.23
2018-07-12T12:23:13.055Z,40.35
2018-07-12T12:25:41.822Z,40.78
2018-07-12T12:28:10.552Z,41.08
2018-07-12T12:30:39.266Z,41.98
2018-07-12T12:33:08.096Z,41.28
2018-07-12T12:35:36.904Z,41.44
2018-07-12T12:38:05.781Z,40.65
2018-07-12T12:40:34.481Z,39.04
2018-07-12T12:43:03.211Z,38.20
2018-07-12T12:45:31.910Z,36.94
2018-07-12T12:48:00.653Z,35.71
2018-07-12T12:50:29.815Z,35.02
2018-07-12T12:52:58.553Z,34.80
2018-07-12T12:55:27.344Z,34.46
2018-07-12T12:57:56.049Z,34.39
2018-07-12T13:00:24.769Z,34.29
2018-07-12T13:02:54.287Z,34.17
2018-07-12T13:05:23.062Z,34.30
2018-07-12T13:07:51.787Z,34.25
2018-07-12T13:10:20.591Z,33.91
2018-07-12T13:12:49.361Z,33.94
2018-07-12T13:15:18.217Z,34.03
2018-07-12T13:17:46.958Z,33.74
2018-07-12T13:20:16.546Z,33.82
2018-07-12T13:22:46.581Z,33.58
2018-07-12T13:25:15.541Z,33.58
2018-07-12T13:27:44.366Z,33.67
2018-07-12T13:30:13.129Z,33.36
2018-07-12T13:32:41.850Z,33.24
2018-07-12T13:35:10.638Z,33.02
2018-07-12T13:37:39.386Z,33.04
2018-07-12T13:40:08.185Z,32.98
2018-07-12T13:42:36.954Z,32.69
2018-07-12T13:45:05.707Z,32.42
2018-07-12T13:47:34.469Z,32.14
2018-07-12T13:50:03.248Z,32.55
2018-07-12T13:52:31.981Z,32.32
2018-07-12T13:55:00.743Z,32.26
2018-07-12T13:57:29.493Z,32.14
2018-07-12T13:59:58.283Z,32.38
2018-07-12T14:02:27.001Z,31.82
2018-07-12T14:04:55.809Z,32.28
2018-07-12T14:07:24.567Z,32.49
2018-07-12T14:09:53.340Z,32.45
2018-07-12T14:12:22.069Z,32.33
2018-07-12T14:14:50.804Z,32.55
2018-07-12T14:17:19.579Z,32.67
2018-07-12T14:19:48.326Z,32.61
2018-07-12T14:22:17.058Z,32.50
2018-07-12T14:24:45.799Z,32.52
2018-07-12T14:27:14.679Z,32.16
2018-07-12T14:29:43.319Z,32.30
2018-07-12T14:32:12.089Z,32.32
2018-07-12T14:34:40.823Z,32.25
2018-07-12T14:37:09.551Z,32.24
2018-07-12T14:39:38.326Z,32.17
2018-07-12T14:42:07.089Z,32.06
2018-07-12T14:44:35.834Z,32.02
2018-07-12T14:47:04.681Z,31.94
2018-07-12T14:49:33.366Z,31.93
2018-07-12T14:52:02.181Z,31.90
2018-07-12T14:54:30.980Z,31.95
2018-07-12T14:56:59.703Z,31.95
2018-07-12T14:59:28.452Z,31.82
2018-07-12T15:01:57.226Z,31.81
2018-07-12T15:04:26.121Z,31.81
2018-07-12T15:06:54.942Z,31.66
2018-07-12T15:09:23.825Z,31.65
2018-07-12T15:11:52.496Z,31.67
2018-07-12T15:14:21.257Z,31.65
2018-07-12T15:16:50.067Z,31.61
2018-07-12T15:19:18.898Z,31.51
2018-07-12T15:21:47.642Z,31.40
2018-07-12T15:24:16.446Z,31.32
2018-07-12T15:26:45.199Z,31.29
2018-07-12T15:29:14.055Z,31.28
2018-07-12T15:31:42.842Z,31.32
2018-07-12T15:34:11.561Z,31.35
2018-07-12T15:36:40.282Z,31.30
2018-07-12T15:39:09.285Z,31.25
2018-07-12T15:41:38.646Z,31.26
2018-07-12T15:44:07.444Z,31.19
2018-07-12T15:46:36.176Z,31.13
2018-07-12T15:49:05.070Z,31.03
2018-07-12T15:51:33.914Z,30.98
2018-07-12T15:54:02.650Z,30.87
2018-07-12T15:56:31.397Z,30.86
2018-07-12T15:59:00.126Z,30.84
2018-07-12T16:01:28.869Z,30.84
2018-07-12T16:03:57.622Z,30.79
2018-07-12T16:06:32.795Z,30.77
2018-07-12T16:09:01.625Z,30.73
2018-07-12T16:11:30.351Z,30.75
2018-07-12T16:13:59.116Z,30.64
2018-07-12T16:16:27.895Z,30.57
2018-07-12T16:18:56.665Z,30.51
2018-07-12T16:21:25.497Z,30.45
2018-07-12T16:23:54.271Z,30.42
2018-07-12T16:26:23.045Z,30.37
2018-07-12T16:28:51.794Z,30.29
2018-07-12T16:31:20.526Z,30.23
2018-07-12T16:33:49.383Z,30.15
2018-07-12T16:36:18.236Z,30.09
2018-07-12T16:38:46.990Z,30.01
2018-07-12T16:41:15.788Z,29.91
2018-07-12T16:43:44.519Z,29.86
2018-07-12T16:46:13.303Z,29.77
2018-07-12T16:48:42.058Z,29.65
2018-07-12T16:51:10.808Z,29.51
2018-07-12T16:53:39.607Z,29.35
2018-07-12T16:56:08.438Z,29.25
2018-07-12T16:58:37.158Z,29.08
2018-07-12T17:01:05.943Z,28.95
2018-07-12T17:03:34.725Z,28.79
2018-07-12T17:06:03.522Z,28.63
2018-07-12T17:08:32.326Z,28.44
2018-07-12T17:11:01.129Z,28.29
2018-07-12T17:13:29.883Z,28.12
2018-07-12T17:15:58.629Z,28.00
2018-07-12T17:18:27.435Z,27.83
2018-07-12T17:20:56.167Z,27.66
2018-07-12T17:23:24.975Z,27.54
2018-07-12T17:25:53.859Z,27.40
2018-07-12T17:28:22.603Z,27.26
2018-07-12T17:30:51.371Z,27.10
2018-07-12T17:33:20.092Z,26.97
2018-07-12T17:35:48.824Z,26.79
2018-07-12T17:38:17.555Z,26.66
2018-07-12T17:40:46.273Z,26.53
2018-07-12T17:43:15.048Z,26.35
2018-07-12T17:45:43.781Z,26.18
2018-07-12T17:48:12.530Z,25.99
2018-07-12T17:50:41.258Z,25.86
2018-07-12T17:53:10.042Z,25.65
2018-07-12T17:55:38.847Z,25.51
2018-07-12T17:58:07.583Z,25.39
2018-07-12T18:00:36.383Z,25.30
2018-07-12T18:03:05.130Z,25.20
2018-07-12T18:05:33.951Z,25.17
2018-07-12T18:08:02.708Z,25.11
2018-07-12T18:10:31.441Z,25.02
2018-07-12T18:13:00.183Z,24.94
2018-07-12T18:15:28.979Z,24.87
2018-07-12T18:17:57.784Z,24.82
2018-07-12T18:20:26.555Z,24.73
2018-07-12T18:22:55.309Z,24.59
2018-07-12T18:25:24.037Z,24.51
2018-07-12T18:27:52.871Z,24.42
2018-07-12T18:30:21.590Z,24.39
2018-07-12T18:32:50.333Z,24.33
2018-07-12T18:35:19.150Z,24.20
2018-07-12T18:37:47.865Z,24.10
2018-07-12T18:40:16.640Z,24.07
2018-07-12T18:42:45.379Z,24.01
2018-07-12T18:45:14.107Z,23.92
2018-07-12T18:47:42.848Z,23.78
2018-07-12T18:50:11.595Z,23.74
2018-07-12T18:52:40.335Z,23.68
2018-07-12T18:55:09.103Z,23.58
2018-07-12T18:57:37.919Z,23.49
2018-07-12T19:00:06.678Z,23.49
2018-07-12T19:02:35.529Z,23.47
2018-07-12T19:05:04.246Z,23.40
2018-07-12T19:07:33.028Z,23.28
2018-07-12T19:10:01.791Z,23.21
2018-07-12T19:12:30.521Z,23.15
2018-07-12T19:14:59.322Z,23.13
2018-07-12T19:17:28.053Z,23.03
2018-07-12T19:19:56.783Z,22.97
2018-07-12T19:22:25.594Z,22.83
2018-07-12T19:24:54.351Z,22.82
2018-07-12T19:27:23.118Z,22.84
2018-07-12T19:29:51.926Z,22.79
2018-07-12T19:32:20.670Z,22.72
2018-07-12T19:34:49.440Z,22.68
2018-07-12T19:37:18.179Z,22.61
2018-07-12T19:39:46.909Z,22.52
2018-07-12T19:42:15.612Z,22.45
2018-07-12T19:44:44.333Z,22.42
2018-07-12T19:47:13.161Z,22.29
2018-07-12T19:49:41.880Z,22.25
2018-07-12T19:52:10.637Z,22.22
2018-07-12T19:54:39.467Z,22.19
2018-07-12T19:57:08.293Z,22.16
2018-07-12T19:59:37.019Z,22.12
2018-07-12T20:02:05.769Z,22.10
2018-07-12T20:04:34.481Z,22.07
2018-07-12T20:07:03.395Z,22.07
2018-07-12T20:09:32.117Z,22.02
2018-07-12T20:12:00.901Z,21.91
2018-07-12T20:14:29.622Z,21.94
2018-07-12T20:16:58.341Z,21.94
2018-07-12T20:19:27.110Z,21.95
2018-07-12T20:21:56.822Z,21.89
2018-07-12T20:24:25.777Z,21.84
2018-07-12T20:26:54.530Z,21.88
2018-07-12T20:29:23.300Z,21.85
2018-07-12T20:31:52.046Z,21.82
2018-07-12T20:34:20.823Z,21.77
2018-07-12T20:36:49.626Z,21.75
2018-07-12T20:39:18.611Z,21.75
2018-07-12T20:41:47.361Z,21.71
2018-07-12T20:44:16.107Z,21.74
2018-07-12T20:46:44.875Z,21.61
2018-07-12T20:49:13.669Z,21.59
2018-07-12T20:51:42.429Z,21.60
2018-07-12T20:54:11.320Z,21.60
2018-07-12T20:56:40.075Z,21.55
2018-07-12T20:59:08.795Z,21.58
2018-07-12T21:01:37.505Z,21.56
2018-07-12T21:04:06.245Z,21.55
2018-07-12T21:06:34.969Z,21.47
2018-07-12T21:09:04.230Z,21.33
2018-07-12T21:11:32.953Z,21.25
2018-07-12T21:14:01.657Z,21.19
2018-07-12T21:16:30.405Z,21.14
2018-07-12T21:18:59.126Z,21.06
2018-07-12T21:21:27.893Z,21.02
2018-07-12T21:23:56.714Z,21.04
2018-07-12T21:26:25.454Z,20.99
2018-07-12T21:28:54.183Z,21.01
2018-07-12T21:31:23.012Z,20.99
2018-07-12T21:33:51.725Z,20.97
2018-07-12T21:36:20.436Z,20.97
2018-07-12T21:38:49.137Z,20.95
2018-07-12T21:41:17.853Z,20.86
2018-07-12T21:43:46.553Z,20.78
2018-07-12T21:46:15.269Z,20.77
2018-07-12T21:48:43.978Z,20.64
2018-07-12T21:51:12.706Z,20.60
2018-07-12T21:53:41.432Z,20.56
2018-07-12T21:56:10.136Z,20.44
2018-07-12T21:58:38.982Z,20.37
2018-07-12T22:01:07.708Z,20.40
2018-07-12T22:03:36.415Z,20.43
2018-07-12T22:06:05.148Z,20.42
2018-07-12T22:08:33.886Z,20.37
2018-07-12T22:11:03.986Z,20.33
2018-07-12T22:13:33.868Z,20.30
2018-07-12T22:16:02.742Z,20.24
2018-07-12T22:18:31.511Z,20.27
2018-07-12T22:21:00.288Z,20.25
2018-07-12T22:23:29.012Z,20.23
2018-07-12T22:25:57.734Z,20.23
2018-07-12T22:28:26.535Z,20.22
2018-07-12T22:30:55.287Z,20.24
2018-07-12T22:33:23.984Z,20.24
2018-07-12T22:35:52.698Z,20.18
2018-07-12T22:38:21.442Z,20.15
2018-07-12T22:40:50.148Z,20.17
2018-07-12T22:43:18.915Z,20.18
2018-07-12T22:45:47.642Z,20.16
2018-07-12T22:48:16.394Z,20.12
2018-07-12T22:50:45.122Z,20.07
2018-07-12T22:53:13.833Z,20.08
2018-07-12T22:55:42.680Z,20.02
2018-07-12T22:58:11.414Z,20.01
2018-07-12T23:00:40.219Z,19.99
2018-07-12T23:03:08.960Z,19.96
2018-07-12T23:05:37.724Z,19.94
2018-07-12T23:08:06.526Z,19.92
2018-07-12T23:10:35.230Z,19.90
2018-07-12T23:13:03.965Z,19.86
2018-07-12T23:15:32.698Z,19.83
2018-07-12T23:18:01.419Z,19.79
2018-07-12T23:20:30.176Z,19.71
2018-07-12T23:22:58.915Z,19.75
2018-07-12T23:25:27.682Z,19.77
2018-07-12T23:27:56.544Z,19.80
2018-07-12T23:30:25.283Z,19.79
2018-07-12T23:32:54.224Z,19.84
2018-07-12T23:35:29.149Z,19.88
2018-07-12T23:37:57.933Z,19.82
2018-07-12T23:40:26.733Z,19.81
2018-07-12T23:42:55.504Z,19.78
2018-07-12T23:45:24.315Z,19.74
2018-07-12T23:47:52.984Z,19.72
2018-07-12T23:50:21.865Z,19.68
2018-07-12T23:52:50.574Z,19.70
2018-07-12T23:55:19.296Z,19.69
2018-07-12T23:57:48.026Z,19.68
